Accueil
METAR-TAF:

METAR-TAF

Aéroports :

Aérodrome de Louang Namtha

Louang Namtha, Laos

latitude: 20-57-38N, longitude: 101-24-09E, altitude: 600 m

Observation

Le bulletin a été fait il y a 8 heures et 10 minutes, à 12:00 UTC
Vent calme
Température 26°C
Humidité 89%
Pression 1004 hPa
Visibilité: 6000 m
Nuages épars à une hauteur de 2000 ft
Quelques nuages à une hauteur de 2300 ft, Cumulonimbus.
Nuages fragmentés à une hauteur de 10000 ft
orage

METAR: VLLN 041200Z 00000KT 6000 TS SCT020 FEW023CB BKN100 26/24 Q1004 CB OVER AD NOSIG

Heure: 01:40 (20:10 UTC)

Prévision

Le bulletin a été fait il y a 9 heures et 10 minutes, à 11:00 UTC
Prévision valable du 04 à 12 UTC au 05 à 12 UTC
Vent 4 kt de ouest/sud-ouest
Visibilité: 8000 m
Nuages épars à une hauteur de 1000 ft
Nuages fragmentés à une hauteur de 9000 ft

TAF: VLLN 041100Z 0412/0512 24004KT 8000 SCT010 BKN090

Observations et prévisions météorologiques de plus de 4000 aéroports (messages METAR et TAF).

Les stations disponibles sont représentées par des disques jaunes et rouges sur la carte.

Passer la souris dessus pour voir le nom de la station.

Cliquer dessus pour voir les observations et prévisions météorologiques.

Pour changer de carte: cliquez sur les boutons verts avec une croix noire pour zoomer, sur le bouton vert avec un tiret pour effectuer un zoom arrière, ou sur les flèches vertes pour les cartes adjacentes.


METAR-TAF: